Flight Track Log - Related Links

Times and Time Zones

All times are in EDT time to prevent confusion due to time zone crossing. See the N762NC flight status page for this flight to view local times or setup timezone preferences in your user account.


Time Position Orientation Groundspeed Altitude Reporting Facility
EDT Latitude Longitude Course Direction KTS MPH feet Rate Location/Type
Thu 10:26:06 AM 32.1622 -81.1061 292° West 233 268 3,400  Level Jacksonville Center
Thu 10:27:06 AM 32.2356 -81.1242 348° North 283 326 5,400 2,400 Climbing Jacksonville Center
Thu 10:28:06 AM 32.2967 -81.1575 335° Northwest 273 314 8,200 2,600 Climbing Jacksonville Center
Thu 10:29:06 AM 32.3436 -81.2378 305° West 264 304 10,600 2,150 Climbing Jacksonville Center
Thu 10:30:00 AM 32.1410 -81.2820 301° West  Level FlightAware Approximate
Thu 10:30:06 AM 32.3594 -81.3333 281° West 285 328 12,500  Level Jacksonville Center
Thu 10:31:00 AM 32.1632 -81.3729 292° West  Level FlightAware Approximate
Thu 10:31:06 AM 32.3669 -81.4464 275° West 333 383 13,900  Level Jacksonville Center
Thu 10:32:06 AM 32.3703 -81.5619 272° West 352 405 15,700 1,250 Climbing Jacksonville Center
Thu 10:33:06 AM 32.3822 -81.6919 276° West 391 450 16,400 1,636 Climbing Jacksonville Center
Thu 10:34:51 AM 32.4128 -81.9131 279° West 386 444 20,200 1,855 Climbing Atlanta Center
Thu 10:35:51 AM 32.4297 -82.0406 279° West 386 444 21,500 900 Climbing Atlanta Center
Thu 10:36:51 AM 32.4858 -82.1625 299° West 400 460 22,000 250 Climbing Atlanta Center
Thu 10:37:51 AM 32.5769 -82.2642 317° Northwest 419 482 22,000  Level Atlanta Center
Thu 10:38:51 AM 32.6558 -82.3686 312° West 434 499 22,000  Level Atlanta Center
Thu 10:39:51 AM 32.7056 -82.5008 294° West 434 499 22,000  Level Atlanta Center
Thu 10:40:51 AM 32.7447 -82.6336 289° West 429 494 22,000  Level Atlanta Center
Thu 10:41:51 AM 32.7900 -82.7736 291° West 440 506 22,000  Level Atlanta Center
Thu 10:42:51 AM 32.8394 -82.9089 294° West 450 518 22,000  Level Atlanta Center
Thu 10:43:51 AM 32.8864 -83.0394 293° West 443 510 22,000  Level Atlanta Center
Thu 10:44:51 AM 32.9269 -83.1553 293° West 427 491 22,000 -250 Level Atlanta Center
Thu 10:45:51 AM 32.9717 -83.2861 292° West 427 491 21,500 -1,950 Descending Atlanta Center
Thu 10:46:51 AM 33.0183 -83.4094 294° West 422 486 18,100 -2,650 Descending Atlanta Center
Thu 10:47:51 AM 33.0669 -83.5381 294° West 411 473 16,200 -1,450 Descending Atlanta Center
Thu 10:48:51 AM 33.1153 -83.6544 296° West 395 455 15,200 -1,050 Descending Atlanta Center
Thu 10:49:51 AM 33.1656 -83.7583 300° West 376 433 14,100 -600 Descending Atlanta Center
Thu 10:50:51 AM 33.2283 -83.8550 308° West 371 427 14,000 -400 Descending Atlanta Center
Thu 10:51:51 AM 33.2808 -83.9444 305° West 371 427 13,300 -950 Descending Atlanta Center
Thu 10:52:51 AM 33.3414 -84.0314 310° West 357 411 12,100 -650 Descending Atlanta Center
Thu 10:53:51 AM 33.4061 -84.1208 311° West 347 399 12,000 -50 Descending Atlanta Center
Thu 10:54:51 AM 33.4706 -84.2081 312° West 352 405 12,000 -391 Level Atlanta Center
Thu 10:56:09 AM 33.5333 -84.3167 305° West 283 326 11,100 -1,300 Descending Atlanta TRACON
Thu 10:56:51 AM 33.5433 -84.3853 280° West 280 322 9,400 -2,000 Descending Atlanta Center
Thu 10:57:51 AM 33.5389 -84.4800 267° West 285 328 7,700 -1,882 Descending Atlanta Center
Thu 11:00:15 AM 33.5333 -84.7000 268° West 279 321 3,000 -1,394 Descending Atlanta TRACON
Thu 11:01:09 AM 33.5500 -84.7500 292° West 222 255 3,100 56 Climbing Atlanta TRACON
Thu 11:02:03 AM 33.6000 -84.7667 344° North 196 226 3,100  Level Atlanta TRACON
Thu 11:03:03 AM 33.6167 -84.7167 68° East 173 199 3,100  Level Atlanta TRACON
Thu 11:04:09 AM 33.6167 -84.6500 90° East 174 200 3,100  Level Atlanta TRACON
Thu 11:05:09 AM 33.6167 -84.5833 90° East 171 197 3,100 -350 Level Atlanta TRACON
Thu 11:06:09 AM 33.6167 -84.5333 90° East 163 188 2,400 -667 Descending Atlanta TRACON
Thu 11:07:15 AM 33.6167 -84.4833 90° East 118 136 1,700 -600 Descending Atlanta TRACON
Thu 11:08:09 AM 33.6167 -84.4500 90° East 122 140 1,200 -556 Descending Atlanta TRACON

Login

Don't have an account? Register now (free) for customized features, flight alerts, and more!